sensor_id;sensor_type;location;lat;lon;timestamp;pressure;altitude;pressure_sealevel;temperature;humidity
12793;BME280;6460;42.684;23.260;2022-10-16T00:01:08;95212.97;;;10.37;100.00
12793;BME280;6460;42.684;23.260;2022-10-16T00:03:36;95211.94;;;10.41;100.00
12793;BME280;6460;42.684;23.260;2022-10-16T00:06:05;95226.56;;;9.83;100.00
12793;BME280;6460;42.684;23.260;2022-10-16T00:08:33;95226.94;;;10.18;100.00
12793;BME280;6460;42.684;23.260;2022-10-16T00:11:05;95233.78;;;10.16;100.00
12793;BME280;6460;42.684;23.260;2022-10-16T00:13:34;95231.00;;;10.24;100.00
12793;BME280;6460;42.684;23.260;2022-10-16T00:16:01;95234.97;;;10.06;100.00
12793;BME280;6460;42.684;23.260;2022-10-16T00:18:29;95227.59;;;10.03;100.00
12793;BME280;6460;42.684;23.260;2022-10-16T00:21:02;95232.47;;;9.52;100.00
12793;BME280;6460;42.684;23.260;2022-10-16T00:23:29;95237.56;;;9.45;100.00
12793;BME280;6460;42.684;23.260;2022-10-16T00:25:57;95237.09;;;9.76;100.00
12793;BME280;6460;42.684;23.260;2022-10-16T00:28:27;95237.09;;;9.31;100.00
12793;BME280;6460;42.684;23.260;2022-10-16T00:30:54;95244.66;;;9.50;100.00
12793;BME280;6460;42.684;23.260;2022-10-16T00:33:22;95244.09;;;9.56;100.00
12793;BME280;6460;42.684;23.260;2022-10-16T00:35:49;95249.06;;;9.79;100.00
12793;BME280;6460;42.684;23.260;2022-10-16T00:38:17;95244.56;;;9.71;100.00
12793;BME280;6460;42.684;23.260;2022-10-16T00:40:44;95243.94;;;9.86;100.00
12793;BME280;6460;42.684;23.260;2022-10-16T00:43:35;95244.31;;;9.64;100.00
12793;BME280;6460;42.684;23.260;2022-10-16T00:46:05;95246.25;;;9.63;100.00
12793;BME280;6460;42.684;23.260;2022-10-16T00:48:32;95241.75;;;9.55;100.00
12793;BME280;6460;42.684;23.260;2022-10-16T00:51:00;95240.53;;;9.65;100.00
12793;BME280;6460;42.684;23.260;2022-10-16T00:53:28;95246.84;;;9.48;100.00
12793;BME280;6460;42.684;23.260;2022-10-16T00:55:55;95236.75;;;9.66;100.00
12793;BME280;6460;42.684;23.260;2022-10-16T00:58:22;95234.72;;;9.63;100.00
12793;BME280;6460;42.684;23.260;2022-10-16T01:00:51;95241.50;;;9.48;100.00
12793;BME280;6460;42.684;23.260;2022-10-16T01:03:24;95242.53;;;9.55;100.00
12793;BME280;6460;42.684;23.260;2022-10-16T01:06:02;95242.69;;;9.83;100.00
12793;BME280;6460;42.684;23.260;2022-10-16T01:08:38;95241.63;;;9.64;100.00
12793;BME280;6460;42.684;23.260;2022-10-16T01:11:11;95249.97;;;9.38;100.00
12793;BME280;6460;42.684;23.260;2022-10-16T01:13:43;95247.44;;;9.21;100.00
12793;BME280;6460;42.684;23.260;2022-10-16T01:16:18;95248.50;;;9.28;100.00
12793;BME280;6460;42.684;23.260;2022-10-16T01:18:53;95244.09;;;9.56;100.00
12793;BME280;6460;42.684;23.260;2022-10-16T01:21:24;95236.72;;;9.53;100.00
12793;BME280;6460;42.684;23.260;2022-10-16T01:24:01;95237.97;;;9.68;100.00
12793;BME280;6460;42.684;23.260;2022-10-16T01:26:41;95234.50;;;9.80;100.00
12793;BME280;6460;42.684;23.260;2022-10-16T01:29:16;95223.44;;;9.69;100.00
12793;BME280;6460;42.684;23.260;2022-10-16T01:31:49;95226.91;;;9.70;100.00
12793;BME280;6460;42.684;23.260;2022-10-16T01:34:20;95221.75;;;9.77;100.00
12793;BME280;6460;42.684;23.260;2022-10-16T01:36:52;95241.97;;;9.62;100.00
12793;BME280;6460;42.684;23.260;2022-10-16T01:39:22;95231.63;;;9.73;100.00
12793;BME280;6460;42.684;23.260;2022-10-16T01:41:56;95233.53;;;9.84;100.00
12793;BME280;6460;42.684;23.260;2022-10-16T01:44:29;95235.19;;;9.77;100.00
12793;BME280;6460;42.684;23.260;2022-10-16T01:46:59;95244.53;;;9.46;100.00
12793;BME280;6460;42.684;23.260;2022-10-16T01:49:30;95253.66;;;9.45;100.00
12793;BME280;6460;42.684;23.260;2022-10-16T01:52:00;95239.06;;;9.67;100.00
12793;BME280;6460;42.684;23.260;2022-10-16T01:54:30;95249.47;;;9.56;100.00
12793;BME280;6460;42.684;23.260;2022-10-16T01:57:00;95251.63;;;9.63;100.00
12793;BME280;6460;42.684;23.260;2022-10-16T01:59:31;95258.84;;;9.50;100.00
12793;BME280;6460;42.684;23.260;2022-10-16T02:02:04;95249.91;;;9.58;100.00
12793;BME280;6460;42.684;23.260;2022-10-16T02:04:36;95254.84;;;9.56;100.00
12793;BME280;6460;42.684;23.260;2022-10-16T02:07:05;95258.34;;;9.36;100.00
12793;BME280;6460;42.684;23.260;2022-10-16T02:09:34;95255.66;;;9.36;100.00
12793;BME280;6460;42.684;23.260;2022-10-16T02:12:08;95251.84;;;9.25;100.00
12793;BME280;6460;42.684;23.260;2022-10-16T02:14:39;95266.91;;;9.50;100.00
12793;BME280;6460;42.684;23.260;2022-10-16T02:17:11;95269.97;;;9.08;100.00
12793;BME280;6460;42.684;23.260;2022-10-16T02:19:39;95275.06;;;9.21;100.00
12793;BME280;6460;42.684;23.260;2022-10-16T02:22:10;95277.13;;;9.36;100.00
12793;BME280;6460;42.684;23.260;2022-10-16T02:24:47;95282.19;;;9.17;100.00
12793;BME280;6460;42.684;23.260;2022-10-16T02:27:21;95279.00;;;9.36;100.00
12793;BME280;6460;42.684;23.260;2022-10-16T02:29:54;95280.03;;;9.31;100.00
12793;BME280;6460;42.684;23.260;2022-10-16T02:32:27;95282.75;;;9.43;100.00
12793;BME280;6460;42.684;23.260;2022-10-16T02:34:58;95274.47;;;9.48;100.00
12793;BME280;6460;42.684;23.260;2022-10-16T02:37:27;95269.22;;;9.52;100.00
12793;BME280;6460;42.684;23.260;2022-10-16T02:39:56;95269.31;;;9.43;100.00
12793;BME280;6460;42.684;23.260;2022-10-16T02:42:28;95276.63;;;9.55;100.00
12793;BME280;6460;42.684;23.260;2022-10-16T02:44:57;95277.25;;;9.40;100.00
12793;BME280;6460;42.684;23.260;2022-10-16T02:47:25;95281.16;;;9.42;100.00
12793;BME280;6460;42.684;23.260;2022-10-16T02:49:52;95285.28;;;9.40;100.00
12793;BME280;6460;42.684;23.260;2022-10-16T02:52:20;95287.28;;;9.31;100.00
12793;BME280;6460;42.684;23.260;2022-10-16T02:54:47;95290.22;;;9.38;100.00
12793;BME280;6460;42.684;23.260;2022-10-16T02:57:14;95292.38;;;9.24;100.00
12793;BME280;6460;42.684;23.260;2022-10-16T02:59:42;95284.25;;;9.32;100.00
12793;BME280;6460;42.684;23.260;2022-10-16T03:02:10;95294.72;;;9.46;100.00
12793;BME280;6460;42.684;23.260;2022-10-16T03:04:38;95294.38;;;9.47;100.00
12793;BME280;6460;42.684;23.260;2022-10-16T03:07:05;95290.31;;;9.41;100.00
12793;BME280;6460;42.684;23.260;2022-10-16T03:09:33;95296.47;;;9.42;100.00
12793;BME280;6460;42.684;23.260;2022-10-16T03:12:00;95295.31;;;9.31;100.00
12793;BME280;6460;42.684;23.260;2022-10-16T03:14:27;95295.19;;;9.27;100.00
12793;BME280;6460;42.684;23.260;2022-10-16T03:16:54;95293.09;;;9.33;100.00
12793;BME280;6460;42.684;23.260;2022-10-16T03:19:23;95301.47;;;9.31;100.00
12793;BME280;6460;42.684;23.260;2022-10-16T03:21:50;95294.13;;;9.40;100.00
12793;BME280;6460;42.684;23.260;2022-10-16T03:24:18;95299.13;;;9.30;100.00
12793;BME280;6460;42.684;23.260;2022-10-16T03:26:45;95305.25;;;9.30;100.00
12793;BME280;6460;42.684;23.260;2022-10-16T03:29:12;95313.78;;;9.12;100.00
12793;BME280;6460;42.684;23.260;2022-10-16T03:31:39;95312.88;;;9.28;100.00
12793;BME280;6460;42.684;23.260;2022-10-16T03:34:06;95316.38;;;9.20;100.00
12793;BME280;6460;42.684;23.260;2022-10-16T03:36:35;95301.88;;;9.21;100.00
12793;BME280;6460;42.684;23.260;2022-10-16T03:39:03;95306.59;;;9.24;100.00
12793;BME280;6460;42.684;23.260;2022-10-16T03:41:30;95305.47;;;9.25;100.00
12793;BME280;6460;42.684;23.260;2022-10-16T03:43:58;95309.00;;;9.17;100.00
12793;BME280;6460;42.684;23.260;2022-10-16T03:46:26;95305.66;;;8.79;100.00
12793;BME280;6460;42.684;23.260;2022-10-16T03:48:53;95307.34;;;8.63;100.00
12793;BME280;6460;42.684;23.260;2022-10-16T03:51:21;95297.34;;;8.51;100.00
12793;BME280;6460;42.684;23.260;2022-10-16T03:53:49;95309.16;;;8.50;100.00
12793;BME280;6460;42.684;23.260;2022-10-16T03:56:17;95309.38;;;8.36;100.00
12793;BME280;6460;42.684;23.260;2022-10-16T03:58:44;95301.91;;;8.04;100.00
12793;BME280;6460;42.684;23.260;2022-10-16T04:01:11;95296.03;;;8.28;100.00
12793;BME280;6460;42.684;23.260;2022-10-16T04:03:38;95299.31;;;8.33;100.00
12793;BME280;6460;42.684;23.260;2022-10-16T04:06:05;95302.78;;;8.25;100.00
12793;BME280;6460;42.684;23.260;2022-10-16T04:08:32;95304.97;;;8.23;100.00
12793;BME280;6460;42.684;23.260;2022-10-16T04:11:03;95305.69;;;8.12;100.00
12793;BME280;6460;42.684;23.260;2022-10-16T04:13:31;95301.84;;;8.21;100.00
12793;BME280;6460;42.684;23.260;2022-10-16T04:15:58;95301.34;;;8.36;100.00
12793;BME280;6460;42.684;23.260;2022-10-16T04:18:26;95300.94;;;8.55;100.00
12793;BME280;6460;42.684;23.260;2022-10-16T04:26:48;95304.06;;;8.57;100.00
12793;BME280;6460;42.684;23.260;2022-10-16T04:29:16;95312.41;;;8.56;100.00
12793;BME280;6460;42.684;23.260;2022-10-16T04:31:43;95310.34;;;8.61;100.00
12793;BME280;6460;42.684;23.260;2022-10-16T04:34:10;95317.13;;;8.59;100.00
12793;BME280;6460;42.684;23.260;2022-10-16T04:36:37;95310.22;;;8.58;100.00
12793;BME280;6460;42.684;23.260;2022-10-16T04:39:03;95317.34;;;8.74;100.00
12793;BME280;6460;42.684;23.260;2022-10-16T04:41:30;95318.47;;;8.73;100.00
12793;BME280;6460;42.684;23.260;2022-10-16T04:43:58;95318.50;;;8.65;100.00
12793;BME280;6460;42.684;23.260;2022-10-16T04:46:25;95318.59;;;8.77;100.00
12793;BME280;6460;42.684;23.260;2022-10-16T04:48:52;95326.03;;;8.71;100.00
12793;BME280;6460;42.684;23.260;2022-10-16T04:51:19;95324.25;;;8.55;100.00
12793;BME280;6460;42.684;23.260;2022-10-16T04:53:46;95328.22;;;8.48;100.00
12793;BME280;6460;42.684;23.260;2022-10-16T04:56:14;95333.19;;;8.59;100.00
12793;BME280;6460;42.684;23.260;2022-10-16T04:58:41;95339.03;;;8.61;100.00
12793;BME280;6460;42.684;23.260;2022-10-16T05:01:10;95343.88;;;8.67;100.00
12793;BME280;6460;42.684;23.260;2022-10-16T05:03:37;95340.06;;;8.77;100.00
12793;BME280;6460;42.684;23.260;2022-10-16T05:06:05;95349.34;;;8.79;100.00
12793;BME280;6460;42.684;23.260;2022-10-16T05:08:32;95345.13;;;8.70;100.00
12793;BME280;6460;42.684;23.260;2022-10-16T05:11:00;95346.69;;;8.41;100.00
12793;BME280;6460;42.684;23.260;2022-10-16T05:13:27;95351.97;;;8.29;100.00
12793;BME280;6460;42.684;23.260;2022-10-16T05:15:54;95358.53;;;8.23;100.00
12793;BME280;6460;42.684;23.260;2022-10-16T05:18:24;95350.19;;;8.33;100.00
12793;BME280;6460;42.684;23.260;2022-10-16T05:20:51;95361.09;;;8.11;100.00
12793;BME280;6460;42.684;23.260;2022-10-16T05:23:18;95350.50;;;8.23;100.00
12793;BME280;6460;42.684;23.260;2022-10-16T05:25:52;95362.16;;;8.36;100.00
12793;BME280;6460;42.684;23.260;2022-10-16T05:28:20;95353.34;;;8.35;100.00
12793;BME280;6460;42.684;23.260;2022-10-16T05:30:47;95360.09;;;8.41;100.00
12793;BME280;6460;42.684;23.260;2022-10-16T05:33:14;95359.03;;;8.25;100.00
12793;BME280;6460;42.684;23.260;2022-10-16T05:35:43;95365.16;;;8.34;100.00
12793;BME280;6460;42.684;23.260;2022-10-16T05:38:11;95360.16;;;9.33;100.00
12793;BME280;6460;42.684;23.260;2022-10-16T05:40:38;95344.50;;;10.57;100.00
12793;BME280;6460;42.684;23.260;2022-10-16T05:43:05;95356.13;;;11.10;100.00
12793;BME280;6460;42.684;23.260;2022-10-16T05:45:33;95356.97;;;11.38;100.00
12793;BME280;6460;42.684;23.260;2022-10-16T05:48:00;95354.19;;;11.62;100.00
12793;BME280;6460;42.684;23.260;2022-10-16T05:50:33;95363.06;;;11.91;100.00
12793;BME280;6460;42.684;23.260;2022-10-16T05:53:11;95353.09;;;12.07;100.00
12793;BME280;6460;42.684;23.260;2022-10-16T05:55:44;95365.22;;;12.29;100.00
12793;BME280;6460;42.684;23.260;2022-10-16T05:58:36;95372.56;;;12.44;100.00
12793;BME280;6460;42.684;23.260;2022-10-16T06:01:05;95379.47;;;12.29;100.00
12793;BME280;6460;42.684;23.260;2022-10-16T06:03:34;95388.97;;;11.95;100.00
12793;BME280;6460;42.684;23.260;2022-10-16T06:06:07;95397.22;;;11.35;100.00
12793;BME280;6460;42.684;23.260;2022-10-16T06:08:36;95408.09;;;10.29;100.00
12793;BME280;6460;42.684;23.260;2022-10-16T06:11:06;95408.59;;;10.68;100.00
12793;BME280;6460;42.684;23.260;2022-10-16T06:13:33;95407.25;;;10.86;100.00
12793;BME280;6460;42.684;23.260;2022-10-16T06:16:02;95418.56;;;10.79;100.00
12793;BME280;6460;42.684;23.260;2022-10-16T06:18:29;95415.97;;;10.71;100.00
12793;BME280;6460;42.684;23.260;2022-10-16T06:20:57;95410.91;;;10.69;100.00
12793;BME280;6460;42.684;23.260;2022-10-16T06:23:24;95420.13;;;10.56;100.00
12793;BME280;6460;42.684;23.260;2022-10-16T06:25:53;95416.66;;;10.68;100.00
12793;BME280;6460;42.684;23.260;2022-10-16T06:28:20;95429.06;;;10.72;100.00
12793;BME280;6460;42.684;23.260;2022-10-16T06:30:47;95422.03;;;10.68;100.00
12793;BME280;6460;42.684;23.260;2022-10-16T06:33:15;95425.81;;;10.79;100.00
12793;BME280;6460;42.684;23.260;2022-10-16T06:35:42;95422.69;;;10.89;100.00
12793;BME280;6460;42.684;23.260;2022-10-16T06:38:09;95433.47;;;10.89;100.00
12793;BME280;6460;42.684;23.260;2022-10-16T06:40:36;95426.97;;;10.90;100.00
12793;BME280;6460;42.684;23.260;2022-10-16T06:43:05;95425.38;;;11.01;100.00
12793;BME280;6460;42.684;23.260;2022-10-16T06:45:32;95431.66;;;11.05;100.00
12793;BME280;6460;42.684;23.260;2022-10-16T06:48:00;95433.91;;;11.15;100.00
12793;BME280;6460;42.684;23.260;2022-10-16T06:50:27;95442.31;;;11.26;100.00
12793;BME280;6460;42.684;23.260;2022-10-16T06:52:54;95443.97;;;11.30;100.00
12793;BME280;6460;42.684;23.260;2022-10-16T06:55:21;95440.41;;;11.38;100.00
12793;BME280;6460;42.684;23.260;2022-10-16T06:57:48;95445.88;;;11.30;100.00
12793;BME280;6460;42.684;23.260;2022-10-16T07:00:17;95451.28;;;11.42;100.00
12793;BME280;6460;42.684;23.260;2022-10-16T07:02:44;95445.75;;;11.50;100.00
12793;BME280;6460;42.684;23.260;2022-10-16T07:05:12;95450.34;;;11.50;100.00
12793;BME280;6460;42.684;23.260;2022-10-16T07:07:39;95450.78;;;11.52;100.00
12793;BME280;6460;42.684;23.260;2022-10-16T08:00:50;95466.16;;;13.37;100.00
12793;BME280;6460;42.684;23.260;2022-10-16T08:06:39;95465.25;;;13.64;100.00
12793;BME280;6460;42.684;23.260;2022-10-16T09:33:28;95448.75;;;18.81;51.74
12793;BME280;6460;42.684;23.260;2022-10-16T09:35:57;95450.69;;;18.98;51.80
12793;BME280;6460;42.684;23.260;2022-10-16T09:38:27;95446.75;;;18.54;49.41
12793;BME280;6460;42.684;23.260;2022-10-16T09:40:55;95445.69;;;19.32;47.80
12793;BME280;6460;42.684;23.260;2022-10-16T09:43:25;95442.56;;;19.41;47.48
12793;BME280;6460;42.684;23.260;2022-10-16T09:46:00;95436.31;;;19.37;47.81
12793;BME280;6460;42.684;23.260;2022-10-16T09:48:33;95429.72;;;19.52;45.77
12793;BME280;6460;42.684;23.260;2022-10-16T09:51:04;95428.16;;;19.19;48.46
12793;BME280;6460;42.684;23.260;2022-10-16T09:53:40;95426.22;;;19.48;48.00
12793;BME280;6460;42.684;23.260;2022-10-16T09:56:10;95417.97;;;19.90;46.39
12793;BME280;6460;42.684;23.260;2022-10-16T09:58:42;95422.19;;;20.02;46.29
12793;BME280;6460;42.684;23.260;2022-10-16T10:01:13;95413.56;;;20.18;46.05
12793;BME280;6460;42.684;23.260;2022-10-16T10:03:43;95418.22;;;20.28;43.85
12793;BME280;6460;42.684;23.260;2022-10-16T10:06:22;95408.81;;;20.39;43.22
12793;BME280;6460;42.684;23.260;2022-10-16T10:08:57;95410.31;;;20.51;42.47
12793;BME280;6460;42.684;23.260;2022-10-16T10:11:44;95410.50;;;20.01;43.75
12793;BME280;6460;42.684;23.260;2022-10-16T10:14:32;95412.00;;;20.27;41.10
12793;BME280;6460;42.684;23.260;2022-10-16T10:17:13;95409.19;;;21.03;40.99
12793;BME280;6460;42.684;23.260;2022-10-16T10:19:46;95406.72;;;21.27;40.31
12793;BME280;6460;42.684;23.260;2022-10-16T10:22:17;95403.72;;;21.03;39.68
12793;BME280;6460;42.684;23.260;2022-10-16T10:24:54;95414.59;;;21.62;39.37
12793;BME280;6460;42.684;23.260;2022-10-16T10:27:25;95401.13;;;21.82;37.58
12793;BME280;6460;42.684;23.260;2022-10-16T10:30:02;95394.59;;;21.28;39.08
12793;BME280;6460;42.684;23.260;2022-10-16T10:32:38;95398.13;;;21.28;38.74
12793;BME280;6460;42.684;23.260;2022-10-16T10:35:18;95395.28;;;21.76;38.74
12793;BME280;6460;42.684;23.260;2022-10-16T10:37:58;95384.63;;;22.23;38.24
12793;BME280;6460;42.684;23.260;2022-10-16T10:40:38;95384.63;;;22.23;38.98
12793;BME280;6460;42.684;23.260;2022-10-16T10:43:16;95374.94;;;22.45;37.70
12793;BME280;6460;42.684;23.260;2022-10-16T10:45:47;95377.13;;;22.57;37.13
12793;BME280;6460;42.684;23.260;2022-10-16T10:48:24;95369.94;;;22.09;37.34
12793;BME280;6460;42.684;23.260;2022-10-16T10:51:01;95371.94;;;22.36;36.65
12793;BME280;6460;42.684;23.260;2022-10-16T10:53:37;95378.59;;;22.65;36.58
12793;BME280;6460;42.684;23.260;2022-10-16T10:56:16;95370.94;;;22.23;35.11
12793;BME280;6460;42.684;23.260;2022-10-16T10:59:04;95372.00;;;22.89;34.78
12793;BME280;6460;42.684;23.260;2022-10-16T11:01:40;95366.28;;;23.27;32.05
12793;BME280;6460;42.684;23.260;2022-10-16T11:04:24;95362.78;;;23.49;33.21
12793;BME280;6460;42.684;23.260;2022-10-16T11:06:58;95361.44;;;23.11;32.84
12793;BME280;6460;42.684;23.260;2022-10-16T11:09:30;95357.09;;;23.37;33.31
12793;BME280;6460;42.684;23.260;2022-10-16T11:12:01;95356.97;;;23.47;31.83
12793;BME280;6460;42.684;23.260;2022-10-16T11:14:35;95363.78;;;23.36;31.92
12793;BME280;6460;42.684;23.260;2022-10-16T11:17:10;95355.78;;;23.48;32.52
12793;BME280;6460;42.684;23.260;2022-10-16T11:19:42;95352.69;;;23.66;31.14
12793;BME280;6460;42.684;23.260;2022-10-16T11:22:16;95340.75;;;23.30;32.33
12793;BME280;6460;42.684;23.260;2022-10-16T11:24:47;95342.28;;;23.77;31.36
12793;BME280;6460;42.684;23.260;2022-10-16T11:27:18;95346.84;;;24.03;31.41
12793;BME280;6460;42.684;23.260;2022-10-16T11:29:50;95331.28;;;23.97;30.09
12793;BME280;6460;42.684;23.260;2022-10-16T11:32:25;95343.56;;;23.49;31.76
12793;BME280;6460;42.684;23.260;2022-10-16T11:34:58;95345.34;;;23.36;32.54
12793;BME280;6460;42.684;23.260;2022-10-16T11:37:31;95347.22;;;23.43;34.21
12793;BME280;6460;42.684;23.260;2022-10-16T11:40:16;95339.38;;;23.64;32.78
12793;BME280;6460;42.684;23.260;2022-10-16T11:42:50;95341.84;;;23.59;32.69
12793;BME280;6460;42.684;23.260;2022-10-16T11:45:26;95349.19;;;23.19;32.78
12793;BME280;6460;42.684;23.260;2022-10-16T11:48:01;95354.13;;;23.28;32.55
12793;BME280;6460;42.684;23.260;2022-10-16T11:50:34;95349.19;;;23.42;31.66
12793;BME280;6460;42.684;23.260;2022-10-16T11:53:11;95344.34;;;23.03;31.77
12793;BME280;6460;42.684;23.260;2022-10-16T11:55:42;95343.38;;;23.13;32.33
12793;BME280;6460;42.684;23.260;2022-10-16T11:58:18;95351.03;;;23.49;31.37
12793;BME280;6460;42.684;23.260;2022-10-16T12:00:55;95339.06;;;24.21;30.82
12793;BME280;6460;42.684;23.260;2022-10-16T12:03:29;95340.66;;;24.39;30.03
12793;BME280;6460;42.684;23.260;2022-10-16T12:06:13;95335.88;;;24.43;30.85
12793;BME280;6460;42.684;23.260;2022-10-16T12:08:46;95338.69;;;24.39;30.06
12793;BME280;6460;42.684;23.260;2022-10-16T12:11:24;95330.63;;;25.16;28.47
12793;BME280;6460;42.684;23.260;2022-10-16T12:14:05;95339.03;;;25.58;27.25
12793;BME280;6460;42.684;23.260;2022-10-16T12:16:32;95330.22;;;25.63;26.02
12793;BME280;6460;42.684;23.260;2022-10-16T12:19:10;95347.25;;;25.74;26.03
12793;BME280;6460;42.684;23.260;2022-10-16T12:21:38;95341.06;;;25.70;25.75
12793;BME280;6460;42.684;23.260;2022-10-16T12:24:20;95342.41;;;25.49;27.13
12793;BME280;6460;42.684;23.260;2022-10-16T12:26:49;95335.25;;;25.52;28.45
12793;BME280;6460;42.684;23.260;2022-10-16T12:29:23;95343.59;;;25.00;28.49
12793;BME280;6460;42.684;23.260;2022-10-16T12:31:55;95340.78;;;25.03;28.33
12793;BME280;6460;42.684;23.260;2022-10-16T12:34:25;95344.53;;;25.42;27.54
12793;BME280;6460;42.684;23.260;2022-10-16T12:36:54;95327.16;;;25.28;28.82
12793;BME280;6460;42.684;23.260;2022-10-16T12:39:24;95332.69;;;25.28;28.69
12793;BME280;6460;42.684;23.260;2022-10-16T12:42:01;95335.66;;;25.66;28.36
12793;BME280;6460;42.684;23.260;2022-10-16T12:44:33;95339.22;;;25.18;27.85
12793;BME280;6460;42.684;23.260;2022-10-16T12:47:00;95336.47;;;26.08;27.07
12793;BME280;6460;42.684;23.260;2022-10-16T12:49:35;95340.28;;;25.98;26.34
12793;BME280;6460;42.684;23.260;2022-10-16T12:52:03;95337.81;;;26.58;25.40
12793;BME280;6460;42.684;23.260;2022-10-16T12:54:35;95341.78;;;26.82;25.74
12793;BME280;6460;42.684;23.260;2022-10-16T12:57:19;95343.75;;;27.07;25.36
12793;BME280;6460;42.684;23.260;2022-10-16T12:59:57;95338.69;;;26.80;25.19
12793;BME280;6460;42.684;23.260;2022-10-16T13:05:39;95352.38;;;26.17;26.96
12793;BME280;6460;42.684;23.260;2022-10-16T13:08:27;95351.31;;;25.98;26.84
12793;BME280;6460;42.684;23.260;2022-10-16T13:11:06;95348.41;;;25.89;27.40
12793;BME280;6460;42.684;23.260;2022-10-16T13:13:56;95346.19;;;25.84;27.96
12793;BME280;6460;42.684;23.260;2022-10-16T13:16:32;95347.47;;;26.08;28.10
12793;BME280;6460;42.684;23.260;2022-10-16T13:19:11;95342.84;;;26.05;28.04
12793;BME280;6460;42.684;23.260;2022-10-16T13:21:47;95340.50;;;26.33;26.71
12793;BME280;6460;42.684;23.260;2022-10-16T13:24:25;95341.28;;;26.46;26.35
12793;BME280;6460;42.684;23.260;2022-10-16T13:27:03;95352.66;;;26.48;26.80
12793;BME280;6460;42.684;23.260;2022-10-16T13:29:34;95346.44;;;26.85;26.16
12793;BME280;6460;42.684;23.260;2022-10-16T13:32:07;95352.16;;;27.03;25.97
12793;BME280;6460;42.684;23.260;2022-10-16T13:34:43;95346.31;;;26.89;25.63
12793;BME280;6460;42.684;23.260;2022-10-16T13:37:18;95346.53;;;26.81;25.68
12793;BME280;6460;42.684;23.260;2022-10-16T13:39:46;95350.72;;;26.73;24.72
12793;BME280;6460;42.684;23.260;2022-10-16T13:42:20;95349.41;;;26.91;24.32
12793;BME280;6460;42.684;23.260;2022-10-16T13:44:50;95355.25;;;26.80;24.45
12793;BME280;6460;42.684;23.260;2022-10-16T13:47:19;95357.56;;;27.07;24.05
12793;BME280;6460;42.684;23.260;2022-10-16T13:49:59;95358.44;;;26.91;23.90
12793;BME280;6460;42.684;23.260;2022-10-16T13:52:26;95355.97;;;26.68;25.98
12793;BME280;6460;42.684;23.260;2022-10-16T13:54:53;95351.69;;;26.67;25.00
12793;BME280;6460;42.684;23.260;2022-10-16T13:57:23;95348.09;;;26.83;25.35
12793;BME280;6460;42.684;23.260;2022-10-16T13:59:52;95350.78;;;26.45;25.26
12793;BME280;6460;42.684;23.260;2022-10-16T14:02:24;95353.16;;;26.17;25.96
12793;BME280;6460;42.684;23.260;2022-10-16T14:04:52;95360.47;;;26.08;26.77
12793;BME280;6460;42.684;23.260;2022-10-16T14:07:24;95357.91;;;26.29;26.09
12793;BME280;6460;42.684;23.260;2022-10-16T14:09:52;95351.53;;;26.33;25.58
12793;BME280;6460;42.684;23.260;2022-10-16T14:12:19;95368.16;;;26.16;25.63
12793;BME280;6460;42.684;23.260;2022-10-16T14:14:51;95365.69;;;25.61;25.50
12793;BME280;6460;42.684;23.260;2022-10-16T14:17:23;95361.06;;;25.58;26.31
12793;BME280;6460;42.684;23.260;2022-10-16T14:19:54;95359.50;;;25.57;25.92
12793;BME280;6460;42.684;23.260;2022-10-16T14:22:28;95363.56;;;25.52;26.13
12793;BME280;6460;42.684;23.260;2022-10-16T14:24:56;95361.47;;;25.24;25.42
12793;BME280;6460;42.684;23.260;2022-10-16T14:27:28;95369.13;;;24.84;25.84
12793;BME280;6460;42.684;23.260;2022-10-16T14:30:14;95377.53;;;24.21;26.71
12793;BME280;6460;42.684;23.260;2022-10-16T14:32:53;95380.78;;;23.93;26.81
12793;BME280;6460;42.684;23.260;2022-10-16T14:35:29;95384.59;;;23.10;27.75
12793;BME280;6460;42.684;23.260;2022-10-16T14:37:59;95379.16;;;23.76;27.05
12793;BME280;6460;42.684;23.260;2022-10-16T14:40:31;95383.88;;;24.18;27.12
12793;BME280;6460;42.684;23.260;2022-10-16T14:42:59;95382.66;;;23.57;26.57
12793;BME280;6460;42.684;23.260;2022-10-16T14:45:30;95388.16;;;23.57;26.27
12793;BME280;6460;42.684;23.260;2022-10-16T14:48:01;95387.91;;;23.48;26.96
12793;BME280;6460;42.684;23.260;2022-10-16T14:50:29;95387.81;;;23.75;26.93
12793;BME280;6460;42.684;23.260;2022-10-16T14:52:56;95398.94;;;23.67;27.86
12793;BME280;6460;42.684;23.260;2022-10-16T14:55:25;95393.63;;;23.57;27.13
12793;BME280;6460;42.684;23.260;2022-10-16T14:57:52;95401.84;;;23.34;28.41
12793;BME280;6460;42.684;23.260;2022-10-16T15:00:22;95406.91;;;23.12;28.10
12793;BME280;6460;42.684;23.260;2022-10-16T15:02:51;95402.72;;;22.77;28.21
12793;BME280;6460;42.684;23.260;2022-10-16T15:05:20;95410.75;;;22.61;28.33
12793;BME280;6460;42.684;23.260;2022-10-16T15:07:48;95415.25;;;22.44;28.89
12793;BME280;6460;42.684;23.260;2022-10-16T15:10:15;95409.63;;;22.25;29.55
12793;BME280;6460;42.684;23.260;2022-10-16T15:12:43;95411.69;;;22.17;30.24
12793;BME280;6460;42.684;23.260;2022-10-16T15:15:28;95414.47;;;22.13;30.28
12793;BME280;6460;42.684;23.260;2022-10-16T15:17:59;95412.09;;;22.15;30.26
12793;BME280;6460;42.684;23.260;2022-10-16T15:20:29;95419.00;;;21.93;31.14
12793;BME280;6460;42.684;23.260;2022-10-16T15:22:59;95420.69;;;20.77;32.74
12793;BME280;6460;42.684;23.260;2022-10-16T15:25:35;95429.03;;;20.52;33.83
12793;BME280;6460;42.684;23.260;2022-10-16T15:28:05;95425.94;;;20.47;33.62
12793;BME280;6460;42.684;23.260;2022-10-16T15:30:34;95432.22;;;20.40;34.42
12793;BME280;6460;42.684;23.260;2022-10-16T15:33:03;95430.75;;;20.11;35.22
12793;BME280;6460;42.684;23.260;2022-10-16T15:35:30;95439.44;;;19.67;35.91
12793;BME280;6460;42.684;23.260;2022-10-16T15:37:58;95440.22;;;19.78;35.29
12793;BME280;6460;42.684;23.260;2022-10-16T15:40:26;95445.69;;;19.39;37.16
12793;BME280;6460;42.684;23.260;2022-10-16T15:42:53;95447.63;;;19.32;37.64
12793;BME280;6460;42.684;23.260;2022-10-16T15:45:20;95453.44;;;18.91;38.28